Terminal Aerodrome Forecast
Issued by NWS

Home | Current Version | Previous Version | Text Only | Print | Product List | Glossary Off
Versions: 1 2 3 4 5 6 7 8 9 10 11 12 13 14 15

000
FTUS43 KGRB 240536
TAFRHI
TAF
KRHI 240536Z 2406/2506 17007KT P6SM SCT040 BKN070
      TEMPO 2406/2410 4SM -SHRA BKN018
     FM241000 17007KT 6SM SHRA BKN025 OVC040
      TEMPO 2410/2414 5SM -SHRA
     FM241500 24009KT P6SM SCT025 BKN045
     FM242000 27010G18KT P6SM SCT050
     FM250100 27005KT P6SM FEW050=

USA.gov is the U.S. government's official web portal to all federal, state and local government web resources and services.